createdAt,value
2022-10-13T00:00:22.291Z,6.88
2022-10-13T00:06:44.553Z,5.50
2022-10-13T00:12:57.166Z,6.72
2022-10-13T00:19:09.733Z,6.72
2022-10-13T00:25:20.073Z,6.72
2022-10-13T00:31:38.407Z,6.65
2022-10-13T00:37:46.829Z,6.72
2022-10-13T00:43:59.675Z,6.63
2022-10-13T00:50:07.795Z,6.38
2022-10-13T00:56:18.452Z,6.90
2022-10-13T01:02:24.082Z,6.82
2022-10-13T01:08:41.126Z,5.30
2022-10-13T01:14:54.569Z,6.53
2022-10-13T01:21:10.475Z,6.07
2022-10-13T01:27:37.449Z,6.55
2022-10-13T01:33:58.797Z,7.25
2022-10-13T01:40:20.472Z,7.50
2022-10-13T01:46:28.971Z,8.82
2022-10-13T01:52:43.102Z,7.88
2022-10-13T01:58:55.815Z,7.80
2022-10-13T02:05:06.864Z,7.28
2022-10-13T02:11:19.539Z,6.72
2022-10-13T02:17:28.332Z,7.75
2022-10-13T02:30:08.736Z,6.30
2022-10-13T02:36:22.076Z,6.25
2022-10-13T02:42:30.889Z,5.00
2022-10-13T02:48:44.345Z,5.93
2022-10-13T02:55:06.146Z,6.30
2022-10-13T03:01:18.623Z,6.72
2022-10-13T03:07:33.565Z,6.93
2022-10-13T03:13:46.103Z,5.88
2022-10-13T03:19:57.285Z,6.47
2022-10-13T03:26:07.478Z,6.03
2022-10-13T03:32:16.752Z,4.68
2022-10-13T03:38:32.429Z,6.00
2022-10-13T03:44:46.321Z,6.78
2022-10-13T03:50:56.383Z,6.05
2022-10-13T03:57:01.132Z,6.88
2022-10-13T04:03:11.993Z,6.60
2022-10-13T04:09:30.254Z,6.57
2022-10-13T04:15:45.074Z,7.18
2022-10-13T04:21:58.480Z,7.25
2022-10-13T04:28:09.458Z,6.82
2022-10-13T04:34:17.603Z,7.18
2022-10-13T04:40:46.574Z,5.72
2022-10-13T04:47:19.274Z,5.97
2022-10-13T04:53:32.337Z,6.07
2022-10-13T04:59:59.595Z,6.00
2022-10-13T05:06:22.753Z,4.43
2022-10-13T05:12:30.826Z,5.38
2022-10-13T05:18:41.157Z,4.85
2022-10-13T05:24:59.448Z,6.28
2022-10-13T05:31:12.816Z,5.88
2022-10-13T05:37:24.547Z,6.35
2022-10-13T05:43:47.332Z,7.63
2022-10-13T05:49:55.896Z,5.82
2022-10-13T05:59:24.577Z,7.20
2022-10-13T06:02:43.120Z,7.07
2022-10-13T06:08:52.163Z,7.70
2022-10-13T06:21:41.244Z,7.65
2022-10-13T06:27:52.964Z,6.60
2022-10-13T06:33:58.207Z,6.93
2022-10-13T06:40:06.284Z,6.47
2022-10-13T06:46:11.882Z,6.70
2022-10-13T06:52:21.162Z,7.18
2022-10-13T06:58:29.200Z,6.85
2022-10-13T07:04:36.186Z,7.30
2022-10-13T07:10:54.859Z,6.93
2022-10-13T07:17:02.482Z,6.30
2022-10-13T07:23:08.734Z,5.47
2022-10-13T07:29:30.660Z,6.63
2022-10-13T07:35:37.267Z,6.68
2022-10-13T07:41:50.179Z,6.38
2022-10-13T07:47:56.901Z,7.65
2022-10-13T07:54:07.477Z,7.50
2022-10-13T08:00:13.861Z,6.63
2022-10-13T08:06:20.595Z,7.40
2022-10-13T08:12:29.705Z,7.50
2022-10-13T08:18:33.868Z,5.35
2022-10-13T08:24:38.950Z,5.80
2022-10-13T08:30:48.462Z,8.20
2022-10-13T08:36:57.445Z,8.45
2022-10-13T08:43:02.800Z,6.55
2022-10-13T08:49:09.416Z,5.03
2022-10-13T08:55:18.516Z,6.78
2022-10-13T09:01:25.801Z,8.18
2022-10-13T09:07:36.265Z,8.77
2022-10-13T09:13:41.830Z,7.28
2022-10-13T09:19:51.368Z,8.90
2022-10-13T09:26:00.518Z,5.43
2022-10-13T09:32:19.420Z,7.93
2022-10-13T09:38:25.603Z,6.50
2022-10-13T09:44:32.899Z,6.82
2022-10-13T09:50:40.231Z,5.97
2022-10-13T09:56:45.749Z,7.63
2022-10-13T10:03:00.013Z,5.35
2022-10-13T10:09:11.167Z,5.35
2022-10-13T10:15:24.180Z,6.47
2022-10-13T10:21:39.151Z,7.43
2022-10-13T10:27:49.798Z,9.30
2022-10-13T10:34:05.650Z,9.43
2022-10-13T10:40:22.799Z,11.73
2022-10-13T10:46:33.748Z,7.47
2022-10-13T10:52:46.228Z,6.35
2022-10-13T10:59:10.645Z,7.00
2022-10-13T11:05:15.471Z,6.93
2022-10-13T11:11:37.908Z,7.47
2022-10-13T11:17:44.312Z,7.35
2022-10-13T11:23:51.111Z,8.15
2022-10-13T11:29:59.112Z,7.78
2022-10-13T11:36:22.002Z,7.53
2022-10-13T11:42:37.103Z,5.13
2022-10-13T11:48:53.107Z,8.18
2022-10-13T11:55:05.230Z,7.05
2022-10-13T12:01:17.581Z,10.25
2022-10-13T12:14:17.711Z,6.78
2022-10-13T12:20:43.625Z,9.70
2022-10-13T12:27:00.427Z,5.43
2022-10-13T12:33:07.892Z,9.65
2022-10-13T12:39:26.943Z,11.25
2022-10-13T12:45:34.839Z,11.35
2022-10-13T12:51:51.239Z,11.35
2022-10-13T12:58:07.277Z,11.65
2022-10-13T13:04:22.055Z,12.10
2022-10-13T13:10:25.626Z,12.35
2022-10-13T13:16:30.577Z,12.13
2022-10-13T13:22:38.319Z,11.23
2022-10-13T13:28:44.705Z,11.30
2022-10-13T13:34:49.691Z,12.45
2022-10-13T13:40:53.074Z,13.32
2022-10-13T13:46:56.723Z,12.65
2022-10-13T13:53:01.482Z,11.65
2022-10-13T13:59:05.069Z,11.38
2022-10-13T14:05:08.648Z,15.23
2022-10-13T14:11:13.645Z,11.50
2022-10-13T14:17:17.097Z,9.63
2022-10-13T14:23:20.723Z,9.05
2022-10-13T14:29:25.970Z,10.63
2022-10-13T14:35:29.544Z,9.60
2022-10-13T14:41:33.331Z,10.48
2022-10-13T14:47:37.997Z,12.63
2022-10-13T14:53:42.342Z,10.73
2022-10-13T14:59:45.677Z,10.45
2022-10-13T15:05:50.501Z,10.77
2022-10-13T15:11:53.832Z,10.80
2022-10-13T15:17:57.449Z,11.77
2022-10-13T15:24:02.529Z,12.13
2022-10-13T15:30:06.218Z,13.02
2022-10-13T15:36:09.976Z,21.17
2022-10-13T15:42:14.719Z,19.40
2022-10-13T15:48:18.187Z,16.92
2022-10-13T15:54:22.637Z,13.73
2022-10-13T16:00:27.948Z,14.80
2022-10-13T16:06:31.349Z,16.20
2022-10-13T16:12:34.715Z,15.63
2022-10-13T16:18:40.279Z,16.67
2022-10-13T16:24:43.656Z,19.50
2022-10-13T16:30:47.061Z,14.00
2022-10-13T16:36:51.908Z,15.20
2022-10-13T16:42:55.576Z,15.57
2022-10-13T16:48:58.951Z,14.13
2022-10-13T16:55:03.887Z,15.88
2022-10-13T17:01:08.736Z,18.30
2022-10-13T17:07:12.904Z,13.93
2022-10-13T17:13:17.643Z,13.82
2022-10-13T17:19:21.287Z,12.35
2022-10-13T17:25:24.692Z,12.55
2022-10-13T17:31:29.435Z,26.70
2022-10-13T17:37:32.772Z,20.23
2022-10-13T17:43:36.476Z,10.27
2022-10-13T17:49:41.434Z,28.77
2022-10-13T17:55:44.868Z,11.68
2022-10-13T18:01:48.268Z,8.90
2022-10-13T18:07:53.151Z,7.40
2022-10-13T18:13:56.763Z,13.10
2022-10-13T18:20:00.395Z,9.43
2022-10-13T18:26:06.415Z,9.85
2022-10-13T18:32:09.767Z,13.50
2022-10-13T18:38:13.170Z,12.20
2022-10-13T18:44:17.978Z,9.73
2022-10-13T18:50:21.389Z,11.70
2022-10-13T18:56:26.122Z,10.15
2022-10-13T19:02:37.659Z,10.90
2022-10-13T19:08:51.239Z,11.63
2022-10-13T19:15:02.267Z,11.90
2022-10-13T19:21:09.260Z,12.52
2022-10-13T19:27:41.342Z,11.82
2022-10-13T19:33:58.749Z,11.30
2022-10-13T19:40:16.077Z,11.40
2022-10-13T19:46:39.570Z,11.07
2022-10-13T19:53:00.458Z,12.50
2022-10-13T19:59:47.413Z,14.00
2022-10-13T20:12:25.846Z,16.15
2022-10-13T20:18:36.969Z,15.25
2022-10-13T20:25:03.405Z,14.30
2022-10-13T20:31:31.805Z,14.75
2022-10-13T20:37:49.468Z,15.82
2022-10-13T20:44:31.841Z,16.38
2022-10-13T20:51:04.996Z,14.60
2022-10-13T20:57:36.343Z,14.88
2022-10-13T21:03:57.121Z,14.25
2022-10-13T21:10:26.543Z,14.00
2022-10-13T21:16:39.552Z,13.25
2022-10-13T21:23:36.304Z,12.65
2022-10-13T21:29:54.604Z,12.63
2022-10-13T21:36:10.529Z,12.70
2022-10-13T21:43:05.729Z,12.80
2022-10-13T22:03:43.830Z,11.45
2022-10-13T22:09:57.243Z,10.60
2022-10-13T22:23:04.533Z,9.85
2022-10-13T22:29:34.262Z,10.52
2022-10-13T22:36:10.627Z,11.77
2022-10-13T22:42:24.103Z,10.95
2022-10-13T22:48:29.810Z,7.40
2022-10-13T23:01:03.155Z,11.38
2022-10-13T23:07:08.998Z,11.38
2022-10-13T23:13:15.513Z,10.68
2022-10-13T23:19:37.131Z,10.85
2022-10-13T23:25:46.716Z,11.32
2022-10-13T23:52:11.502Z,9.77
2022-10-13T23:58:45.195Z,11.02
